Time;durP1;ratioP1;P1;durP2;ratioP2;P2;SDS_P1;SDS_P2;PMS_P1;PMS_P2;Temp;Humidity;BMP_temperature;BMP_pressure;BME280_temperature;BME280_humidity;BME280_pressure;Samples;Min_cycle;Max_cycle;Signal;HPM_P1;HPM_P2
2022/12/15 00:38:53;;;;;;;39.58;14.00;;;;;;;-8.19;95.48;100609.69;5026223;28;20056;-71
2022/12/15 00:41:19;;;;;;;34.30;13.45;;;;;;;-8.19;95.51;100600.00;5022024;28;20033;-71
2022/12/15 00:43:45;;;;;;;31.20;13.77;;;;;;;-8.15;95.48;100611.47;5050400;28;20037;-70
2022/12/15 00:48:54;;;;;;;34.10;14.60;;;;;;;-8.13;95.70;100607.91;5030278;28;20119;-71
2022/12/15 00:51:20;;;;;;;39.45;15.32;;;;;;;-8.10;96.00;100620.25;5030516;28;20159;-71
2022/12/15 01:21:09;;;;;;;27.35;13.00;;;;;;;-8.03;95.80;100621.97;5029139;28;20323;-71
2022/12/15 01:23:36;;;;;;;25.83;12.70;;;;;;;-8.05;95.99;100622.00;5030093;28;20033;-71
2022/12/15 01:26:03;;;;;;;32.65;14.07;;;;;;;-8.06;96.02;100627.28;5043775;28;20124;-71
2022/12/15 01:28:29;;;;;;;33.92;12.95;;;;;;;-8.07;96.20;100623.75;5029675;28;20217;-71
2022/12/15 01:30:54;;;;;;;26.98;13.30;;;;;;;-8.08;96.42;100629.91;5044945;28;20048;-71
2022/12/15 01:33:20;;;;;;;35.63;14.65;;;;;;;-8.04;96.50;100630.78;5049625;28;20038;-72
2022/12/15 01:35:59;;;;;;;28.45;13.48;;;;;;;-8.04;96.67;100631.66;5028507;28;20021;-72
2022/12/15 01:38:26;;;;;;;32.78;14.70;;;;;;;-8.04;96.36;100634.31;5029341;28;20057;-71
2022/12/15 01:40:59;;;;;;;30.67;15.35;;;;;;;-8.03;96.73;100632.53;5032636;28;20094;-71
2022/12/15 01:43:29;;;;;;;35.67;15.48;;;;;;;-8.02;96.53;100629.94;5047419;28;20558;-71
2022/12/15 01:45:59;;;;;;;29.00;13.57;;;;;;;-8.05;96.47;100627.28;5043146;28;20045;-71
2022/12/15 01:48:45;;;;;;;26.60;13.05;;;;;;;-8.04;96.07;100631.66;5034126;28;20064;-72
2022/12/15 01:51:16;;;;;;;34.47;13.90;;;;;;;-8.09;95.73;100638.72;5027179;28;20128;-71
2022/12/15 01:53:48;;;;;;;28.88;12.20;;;;;;;-8.13;95.81;100636.06;5029377;28;20045;-71
2022/12/15 01:56:15;;;;;;;25.08;12.15;;;;;;;-8.15;95.67;100644.00;5037786;28;20033;-71
2022/12/15 01:58:44;;;;;;;25.17;12.07;;;;;;;-8.17;95.89;100651.00;5044990;28;20026;-71
2022/12/15 02:01:10;;;;;;;27.25;13.10;;;;;;;-8.19;95.76;100649.28;5029048;28;20056;-71
2022/12/15 02:03:37;;;;;;;29.15;12.93;;;;;;;-8.22;95.77;100644.84;5028214;28;20075;-71
2022/12/15 02:06:02;;;;;;;33.33;13.45;;;;;;;-8.24;95.81;100652.78;5028185;28;20100;-71
2022/12/15 02:08:29;;;;;;;32.08;13.55;;;;;;;-8.26;95.40;100658.91;5027858;28;20120;-71
2022/12/15 02:11:22;;;;;;;27.65;13.40;;;;;;;-8.27;95.73;100659.81;5027950;28;20032;-71
2022/12/15 02:14:00;;;;;;;27.33;11.60;;;;;;;-8.29;95.43;100662.44;5037731;23;20130;-82
2022/12/15 02:16:44;;;;;;;25.70;12.10;;;;;;;-8.32;95.35;100662.44;5265136;22;20073;-71
2022/12/15 02:19:36;;;;;;;26.90;12.82;;;;;;;-8.33;95.35;100668.59;5043292;28;20136;-71
2022/12/15 02:22:35;;;;;;;28.35;12.65;;;;;;;-8.35;95.34;100670.34;5028211;28;20068;-71
2022/12/15 02:25:38;;;;;;;26.92;13.45;;;;;;;-8.35;95.18;100680.88;5047826;28;20037;-71
2022/12/15 02:28:15;;;;;;;26.88;12.77;;;;;;;-8.37;95.19;100677.41;5046826;28;20372;-71
2022/12/15 02:33:49;;;;;;;29.58;13.13;;;;;;;-8.36;95.99;100675.66;5028077;28;20437;-71
2022/12/15 02:36:22;;;;;;;29.40;12.30;;;;;;;-8.34;95.97;100677.41;5026808;28;20041;-71
2022/12/15 02:38:47;;;;;;;32.00;13.13;;;;;;;-8.34;95.80;100684.44;5028293;28;20171;-71
2022/12/15 02:41:34;;;;;;;28.55;12.98;;;;;;;-8.34;95.97;100684.44;5033254;28;20451;-71
2022/12/15 02:44:03;;;;;;;27.85;11.80;;;;;;;-8.37;95.78;100679.19;5038274;28;20045;-71
2022/12/15 02:46:58;;;;;;;31.25;13.75;;;;;;;-8.42;95.47;100679.16;5032968;28;20514;-71
2022/12/15 02:49:26;;;;;;;26.17;12.48;;;;;;;-8.45;95.42;100687.06;5039334;28;20449;-70
2022/12/15 02:52:38;;;;;;;26.70;13.07;;;;;;;-8.50;95.38;100678.25;5031801;28;20458;-72
2022/12/15 02:55:27;;;;;;;29.27;14.90;;;;;;;-8.48;95.73;100684.44;5061549;28;20034;-71
2022/12/15 02:57:58;;;;;;;33.25;14.43;;;;;;;-8.47;95.82;100680.91;5029468;28;20209;-71
2022/12/15 03:00:23;;;;;;;23.90;12.20;;;;;;;-8.48;95.68;100677.41;5037833;28;20495;-71
2022/12/15 03:02:51;;;;;;;24.25;12.27;;;;;;;-8.48;95.97;100674.78;5028886;28;20043;-72
2022/12/15 03:05:19;;;;;;;37.72;13.85;;;;;;;-8.44;96.22;100678.25;5036926;28;20032;-72
2022/12/15 03:07:44;;;;;;;30.48;15.20;;;;;;;-8.43;96.50;100673.91;5049142;28;20387;-72
2022/12/15 03:10:13;;;;;;;33.25;13.43;;;;;;;-8.41;96.27;100674.78;5040780;28;20026;-71
2022/12/15 03:12:38;;;;;;;27.58;13.55;;;;;;;-8.42;96.23;100675.66;5044959;28;20040;-71
2022/12/15 03:15:04;;;;;;;30.70;13.38;;;;;;;-8.44;96.10;100683.53;5046315;28;20085;-71
2022/12/15 03:17:30;;;;;;;36.15;14.30;;;;;;;-8.44;96.32;100688.81;5027552;28;20503;-71
2022/12/15 03:19:55;;;;;;;29.45;14.05;;;;;;;-8.42;96.19;100699.38;5027298;28;20037;-71
2022/12/15 03:22:21;;;;;;;31.17;13.48;;;;;;;-8.42;96.11;100699.38;5044974;28;20040;-71
2022/12/15 03:24:47;;;;;;;30.27;14.02;;;;;;;-8.43;96.10;100695.00;5048894;28;20029;-71
2022/12/15 03:27:13;;;;;;;29.30;13.82;;;;;;;-8.44;96.19;100699.38;5048648;28;20503;-71
2022/12/15 03:29:38;;;;;;;27.27;13.10;;;;;;;-8.44;96.19;100701.13;5036881;28;20030;-71
2022/12/15 03:32:04;;;;;;;32.75;14.48;;;;;;;-8.46;96.32;100701.13;5028535;28;20128;-72
2022/12/15 03:34:29;;;;;;;28.45;13.65;;;;;;;-8.45;96.50;100702.00;5027310;28;20480;-72
2022/12/15 03:36:55;;;;;;;30.65;12.98;;;;;;;-8.45;96.09;100705.53;5027331;28;20554;-71
2022/12/15 03:39:20;;;;;;;27.63;14.50;;;;;;;-8.48;96.41;100702.91;5028788;28;20037;-72
2022/12/15 03:41:45;;;;;;;26.70;13.32;;;;;;;-8.46;96.58;100705.53;5037339;28;20391;-72
2022/12/15 03:44:11;;;;;;;34.78;14.68;;;;;;;-8.45;96.52;100710.81;5036430;28;20021;-72
2022/12/15 03:46:36;;;;;;;26.23;12.98;;;;;;;-8.45;96.43;100710.81;5028311;28;20040;-71
2022/12/15 03:49:02;;;;;;;29.95;13.63;;;;;;;-8.45;96.46;100709.94;5028405;28;20503;-71
2022/12/15 03:51:27;;;;;;;29.75;14.43;;;;;;;-8.44;96.69;100704.63;5028648;28;20537;-71
2022/12/15 03:53:53;;;;;;;32.05;14.07;;;;;;;-8.43;96.42;100710.81;5060355;28;20555;-71
2022/12/15 03:56:18;;;;;;;32.22;15.90;;;;;;;-8.46;96.57;100708.16;5028683;28;20040;-72
2022/12/15 03:58:44;;;;;;;34.22;15.73;;;;;;;-8.45;96.24;100707.28;5028479;28;20199;-72
2022/12/15 04:01:25;;;;;;;26.95;13.55;;;;;;;-8.45;96.30;100716.06;5028241;28;20025;-72
2022/12/15 04:03:50;;;;;;;28.48;13.60;;;;;;;-8.46;96.49;100708.16;5027372;28;20052;-72
2022/12/15 04:06:15;;;;;;;29.52;14.40;;;;;;;-8.45;96.46;100707.28;5028480;28;20033;-71
2022/12/15 04:08:41;;;;;;;36.47;14.88;;;;;;;-8.42;97.12;100709.94;5028648;28;20040;-71
2022/12/15 04:11:06;;;;;;;34.45;15.60;;;;;;;-8.39;97.23;100699.38;5033239;28;20119;-71
2022/12/15 04:13:31;;;;;;;34.75;16.45;;;;;;;-8.34;97.06;100697.63;5052118;28;20072;-71
2022/12/15 04:16:00;;;;;;;35.35;15.65;;;;;;;-8.37;96.69;100692.38;5052365;28;20045;-71
2022/12/15 04:18:25;;;;;;;31.63;14.93;;;;;;;-8.37;96.49;100695.00;5031901;28;20033;-71
2022/12/15 04:20:51;;;;;;;34.85;14.07;;;;;;;-8.39;96.53;100696.75;5032497;28;20070;-72
2022/12/15 04:23:16;;;;;;;33.15;13.70;;;;;;;-8.42;96.42;100697.63;5042980;28;20375;-72
2022/12/15 05:31:59;;;;;;;33.33;15.18;;;;;;;-8.55;97.49;100738.91;5035123;28;20049;-71
2022/12/15 05:34:26;;;;;;;33.40;14.63;;;;;;;-8.50;97.45;100744.19;5036876;28;20491;-71
2022/12/15 05:36:53;;;;;;;36.70;15.73;;;;;;;-8.50;97.60;100752.97;5031126;28;20532;-71
2022/12/15 05:39:20;;;;;;;36.22;17.08;;;;;;;-8.52;97.79;100741.56;5038212;28;20028;-71
2022/12/15 05:41:45;;;;;;;37.35;15.05;;;;;;;-8.51;97.59;100734.53;5048517;28;20028;-73
2022/12/15 05:44:11;;;;;;;39.58;16.10;;;;;;;-8.53;97.19;100734.53;5045303;28;20079;-72
2022/12/15 05:46:36;;;;;;;33.78;15.55;;;;;;;-8.53;97.52;100742.44;5028905;28;20116;-71
2022/12/15 05:49:07;;;;;;;40.78;15.82;;;;;;;-8.48;97.81;100739.81;5062222;28;20048;-72
2022/12/15 05:51:36;;;;;;;39.55;16.33;;;;;;;-8.45;98.13;100741.56;5029192;28;20037;-71
2022/12/15 05:54:01;;;;;;;33.08;15.82;;;;;;;-8.41;98.26;100752.13;5028819;28;20536;-71
2022/12/15 05:56:27;;;;;;;36.15;15.45;;;;;;;-8.42;98.00;100757.41;5030197;28;20141;-71
2022/12/15 05:58:54;;;;;;;50.05;19.98;;;;;;;-8.43;98.40;100768.84;5029101;28;20067;-72
2022/12/15 06:01:21;;;;;;;37.55;16.42;;;;;;;-8.41;98.67;100761.81;5072063;28;20028;-71
2022/12/15 06:03:46;;;;;;;40.50;16.17;;;;;;;-8.41;98.74;100759.16;5030127;28;20037;-72
2022/12/15 06:06:12;;;;;;;38.15;17.15;;;;;;;-8.38;98.76;100759.19;5028161;28;20476;-71
2022/12/15 06:08:40;;;;;;;40.17;16.58;;;;;;;-8.44;98.64;100752.13;5028940;28;20083;-71
2022/12/15 06:11:06;;;;;;;41.85;17.65;;;;;;;-8.45;97.91;100766.19;5036411;28;20487;-71
2022/12/15 06:13:35;;;;;;;44.92;18.23;;;;;;;-8.46;98.61;100766.19;5048303;28;20033;-71
2022/12/15 06:16:05;;;;;;;40.72;16.85;;;;;;;-8.49;98.27;100760.03;5041458;28;20496;-71
2022/12/15 06:18:34;;;;;;;46.15;18.30;;;;;;;-8.48;98.34;100767.06;5035332;28;20048;-71
2022/12/15 06:21:03;;;;;;;45.30;17.17;;;;;;;-8.48;98.29;100760.94;5029722;28;20041;-71
2022/12/15 06:23:31;;;;;;;36.42;16.63;;;;;;;-8.50;98.42;100758.25;5029551;28;20041;-71
2022/12/15 06:25:57;;;;;;;40.17;18.02;;;;;;;-8.50;98.35;100766.16;5029368;28;20033;-71
2022/12/15 06:28:23;;;;;;;38.90;15.93;;;;;;;-8.54;98.03;100769.66;5028108;28;20030;-71
2022/12/15 06:30:54;;;;;;;44.08;19.00;;;;;;;-8.53;98.13;100767.94;5012092;28;20107;-71
2022/12/15 06:33:21;;;;;;;45.55;20.17;;;;;;;-8.51;98.81;100768.81;5029467;28;20041;-71
2022/12/15 06:35:47;;;;;;;45.33;17.83;;;;;;;-8.43;99.58;100772.38;5061173;28;20045;-71
2022/12/15 06:38:13;;;;;;;51.33;19.98;;;;;;;-8.40;99.51;100769.72;5028007;28;20037;-71
2022/12/15 06:40:39;;;;;;;43.75;18.98;;;;;;;-8.40;99.38;100772.34;5028728;28;20037;-71
2022/12/15 06:43:08;;;;;;;42.10;18.20;;;;;;;-8.43;99.18;100771.50;5045764;28;20483;-71
2022/12/15 06:45:34;;;;;;;40.13;18.90;;;;;;;-8.44;98.88;100777.63;5044267;28;20033;-71
2022/12/15 06:47:59;;;;;;;36.28;17.58;;;;;;;-8.43;98.92;100771.50;5043666;28;20485;-71
2022/12/15 06:50:25;;;;;;;34.88;16.10;;;;;;;-8.44;98.98;100769.69;5029391;28;20032;-72
2022/12/15 06:52:50;;;;;;;34.53;17.55;;;;;;;-8.45;99.12;100773.22;5028510;28;20052;-71
2022/12/15 06:55:16;;;;;;;40.67;18.58;;;;;;;-8.44;99.17;100775.84;5027966;28;20046;-71
2022/12/15 06:57:42;;;;;;;37.17;17.13;;;;;;;-8.44;99.12;100780.25;5028886;28;20091;-71
2022/12/15 07:00:08;;;;;;;37.42;16.00;;;;;;;-8.46;98.99;100784.66;5028798;28;20061;-70
2022/12/15 07:02:33;;;;;;;42.60;18.60;;;;;;;-8.48;99.11;100779.38;5035082;28;20052;-71
2022/12/15 07:04:58;;;;;;;37.00;17.80;;;;;;;-8.47;99.18;100773.22;5027110;28;20033;-71
2022/12/15 07:07:24;;;;;;;40.92;17.27;;;;;;;-8.49;99.29;100769.69;5027655;28;20060;-71
2022/12/15 07:09:50;;;;;;;32.58;16.20;;;;;;;-8.48;99.06;100776.75;5029082;28;20057;-71
2022/12/15 07:12:16;;;;;;;41.95;18.38;;;;;;;-8.50;98.76;100786.38;5073922;28;20463;-71
2022/12/15 07:14:42;;;;;;;42.50;19.15;;;;;;;-8.53;98.77;100784.63;5030770;28;20055;-71
2022/12/15 07:17:09;;;;;;;35.88;17.38;;;;;;;-8.53;98.67;100789.03;5063757;28;20505;-71
2022/12/15 07:19:35;;;;;;;37.35;17.20;;;;;;;-8.55;98.58;100794.28;5027498;28;20034;-71
2022/12/15 07:22:01;;;;;;;38.75;17.60;;;;;;;-8.56;98.49;100795.16;5027440;28;20091;-71
2022/12/15 07:24:26;;;;;;;46.28;19.92;;;;;;;-8.55;98.75;100798.69;5011482;28;20026;-71
2022/12/15 07:26:52;;;;;;;42.97;16.40;;;;;;;-8.54;98.76;100803.06;5029129;28;20465;-71
2022/12/15 07:29:17;;;;;;;43.60;17.95;;;;;;;-8.53;99.14;100797.81;5011327;28;20033;-71
2022/12/15 07:31:43;;;;;;;38.80;16.05;;;;;;;-8.48;98.67;100800.47;5028517;28;20040;-71
2022/12/15 07:34:08;;;;;;;41.00;17.98;;;;;;;-8.43;99.62;100795.22;5028664;28;20038;-71
2022/12/15 07:36:33;;;;;;;34.70;17.08;;;;;;;-8.41;99.95;100783.78;5027164;28;20346;-70
2022/12/15 07:39:00;;;;;;;48.53;19.08;;;;;;;-8.35;100.00;100806.63;5034173;28;20097;-71
2022/12/15 07:41:26;;;;;;;44.42;19.17;;;;;;;-8.36;100.00;100807.53;5045793;28;20041;-71
2022/12/15 07:43:51;;;;;;;46.90;18.65;;;;;;;-8.41;99.62;100793.47;5048803;28;20029;-71
2022/12/15 07:46:17;;;;;;;41.38;18.65;;;;;;;-8.42;99.53;100807.53;5037817;28;20032;-71
2022/12/15 07:48:44;;;;;;;38.85;16.90;;;;;;;-8.44;99.39;100806.63;5028042;28;20489;-71
2022/12/15 07:51:09;;;;;;;46.03;18.13;;;;;;;-8.41;99.53;100802.25;5028209;28;20055;-71
2022/12/15 07:53:35;;;;;;;38.95;18.63;;;;;;;-8.39;99.62;100800.53;5027024;28;20033;-71
2022/12/15 07:56:03;;;;;;;47.78;21.20;;;;;;;-8.35;99.74;100807.50;5027898;28;20037;-71
2022/12/15 07:58:28;;;;;;;39.53;18.63;;;;;;;-8.33;99.71;100810.16;5027859;28;20143;-71
2022/12/15 08:01:02;;;;;;;38.55;18.52;;;;;;;-8.27;100.00;100812.81;5026480;28;20543;-71
2022/12/15 08:03:28;;;;;;;42.55;18.23;;;;;;;-8.26;100.00;100811.94;5033927;28;20476;-71
2022/12/15 08:05:54;;;;;;;38.40;16.90;;;;;;;-8.26;100.00;100819.84;5034205;28;20545;-71
2022/12/15 08:08:21;;;;;;;41.15;17.85;;;;;;;-8.27;99.83;100826.88;5048450;28;20040;-71
2022/12/15 08:10:46;;;;;;;41.65;16.52;;;;;;;-8.32;99.43;100822.47;5047786;28;20112;-71
2022/12/15 08:13:12;;;;;;;39.97;17.33;;;;;;;-8.32;99.20;100833.91;5031625;28;20357;-71
2022/12/15 08:15:38;;;;;;;59.47;19.00;;;;;;;-8.29;99.21;100841.84;5030955;28;20048;-71
2022/12/15 08:18:05;;;;;;;50.13;16.73;;;;;;;-8.29;99.03;100835.69;5040552;28;20076;-71
2022/12/15 08:20:31;;;;;;;41.58;18.33;;;;;;;-8.28;99.12;100837.44;5045612;28;20491;-71
2022/12/15 08:22:57;;;;;;;44.70;17.52;;;;;;;-8.26;99.20;100833.91;5037674;28;20099;-71
2022/12/15 08:25:23;;;;;;;53.28;18.42;;;;;;;-8.19;99.51;100836.59;5028629;28;20469;-71
2022/12/15 08:27:50;;;;;;;53.50;20.48;;;;;;;-8.14;99.70;100827.81;5027006;28;20090;-71
2022/12/15 08:30:17;;;;;;;46.33;20.35;;;;;;;-8.08;99.95;100825.19;5027955;28;20032;-70
2022/12/15 08:32:43;;;;;;;43.20;21.17;;;;;;;-8.04;99.80;100834.00;5029307;28;20118;-71
2022/12/15 08:35:08;;;;;;;44.95;22.60;;;;;;;-8.01;99.64;100836.66;5014238;28;20030;-71
2022/12/15 08:37:33;;;;;;;48.55;21.50;;;;;;;-8.00;99.77;100835.78;5027628;28;20034;-71
2022/12/15 08:39:59;;;;;;;46.40;20.50;;;;;;;-7.93;99.87;100834.03;5028470;28;20510;-71
2022/12/15 08:42:24;;;;;;;41.40;19.55;;;;;;;-7.87;100.00;100832.28;5041587;28;20455;-71
2022/12/15 08:44:50;;;;;;;45.40;21.15;;;;;;;-7.77;100.00;100831.44;5048080;28;20032;-71
2022/12/15 08:47:15;;;;;;;44.08;19.73;;;;;;;-7.74;100.00;100830.53;5012089;28;20183;-71
2022/12/15 08:49:41;;;;;;;45.70;20.65;;;;;;;-7.64;100.00;100839.38;5009549;28;20060;-71
2022/12/15 08:52:06;;;;;;;45.92;19.88;;;;;;;-7.57;100.00;100838.50;5037110;28;20108;-70
2022/12/15 08:54:31;;;;;;;55.13;21.42;;;;;;;-7.47;100.00;100843.78;5046167;28;20083;-71
2022/12/15 08:56:57;;;;;;;47.97;20.15;;;;;;;-7.39;100.00;100840.28;5062557;28;20021;-71
2022/12/15 08:59:22;;;;;;;51.65;19.70;;;;;;;-7.29;100.00;100842.03;5042403;28;20035;-71
2022/12/15 09:01:47;;;;;;;45.63;20.58;;;;;;;-7.22;100.00;100849.97;5031407;28;20408;-71
2022/12/15 09:04:13;;;;;;;50.45;22.38;;;;;;;-7.20;100.00;100850.84;5031493;28;20032;-71
2022/12/15 09:06:38;;;;;;;45.70;20.80;;;;;;;-7.19;100.00;100857.88;5031199;28;20125;-71
2022/12/15 09:09:07;;;;;;;51.58;21.63;;;;;;;-7.13;100.00;100864.97;5031243;28;20488;-71
2022/12/15 09:11:32;;;;;;;43.50;22.05;;;;;;;-7.10;100.00;100864.94;5044881;28;20045;-71
2022/12/15 09:13:58;;;;;;;45.38;21.25;;;;;;;-7.02;100.00;100857.88;5031223;28;20485;-71
2022/12/15 09:16:23;;;;;;;44.17;21.77;;;;;;;-6.94;100.00;100873.75;5030130;28;20121;-71
2022/12/15 09:18:52;;;;;;;44.50;20.67;;;;;;;-6.84;100.00;100877.28;5035355;28;20060;-71
2022/12/15 09:21:21;;;;;;;54.65;22.77;;;;;;;-6.74;100.00;100876.38;5029825;28;20040;-71
2022/12/15 09:23:50;;;;;;;52.58;23.05;;;;;;;-6.62;100.00;100881.66;5030733;28;20124;-71
2022/12/15 09:26:16;;;;;;;57.13;24.33;;;;;;;-6.51;100.00;100879.84;5029244;28;20033;-71
2022/12/15 09:28:42;;;;;;;50.35;23.38;;;;;;;-6.43;100.00;100879.84;5030430;28;20041;-71
2022/12/15 09:31:09;;;;;;;47.30;22.75;;;;;;;-6.36;100.00;100883.34;5037037;28;20047;-71
2022/12/15 09:33:35;;;;;;;50.00;22.92;;;;;;;-6.30;100.00;100884.19;5022058;28;20128;-71
2022/12/15 09:36:01;;;;;;;45.92;21.50;;;;;;;-6.26;100.00;100896.53;5030392;28;20465;-71
2022/12/15 09:38:26;;;;;;;52.45;25.33;;;;;;;-6.16;100.00;100889.44;5029099;28;20036;-71
2022/12/15 09:40:52;;;;;;;45.33;23.02;;;;;;;-6.06;100.00;100901.78;5031892;28;20508;-71
2022/12/15 09:43:21;;;;;;;52.33;23.38;;;;;;;-5.96;100.00;100910.56;5043329;28;20025;-71
2022/12/15 09:46:00;;;;;;;60.05;24.58;;;;;;;-5.87;100.00;100906.97;5029313;28;20480;-70
2022/12/15 09:48:32;;;;;;;49.78;23.23;;;;;;;-5.77;100.00;100908.69;5030382;28;20124;-71
2022/12/15 09:51:00;;;;;;;;;;;;;;;-5.69;100.00;100909.50;5029496;28;20037;-71
2022/12/15 09:53:25;;;;;;;60.10;22.17;;;;;;;-5.59;100.00;100905.06;5030445;28;19917;-71
2022/12/15 09:55:56;;;;;;;43.80;21.38;;;;;;;-5.52;100.00;100907.66;5030689;28;20033;-70
2022/12/15 09:58:52;;;;;;;54.25;24.90;;;;;;;-5.43;100.00;100915.53;5030666;28;20033;-71
2022/12/15 10:01:26;;;;;;;54.42;22.65;;;;;;;-5.33;100.00;100912.84;5029023;28;20531;-71
2022/12/15 10:03:59;;;;;;;53.08;23.65;;;;;;;-5.24;100.00;100913.66;5030194;28;20104;-71
2022/12/15 10:06:39;;;;;;;57.65;25.52;;;;;;;-5.18;100.00;100907.41;5030226;28;20045;-71
2022/12/15 10:09:18;;;;;;;51.15;25.00;;;;;;;-5.05;100.00;100909.09;5029613;28;20037;-70
2022/12/15 10:11:58;;;;;;;57.65;24.73;;;;;;;-4.96;100.00;100914.31;5029946;28;20037;-71
2022/12/15 10:14:49;;;;;;;57.20;25.33;;;;;;;-4.89;100.00;100907.22;5030147;28;20055;-70
2022/12/15 10:17:41;;;;;;;53.53;24.30;;;;;;;-4.78;100.00;100907.13;5012247;28;20441;-70
2022/12/15 10:20:18;;;;;;;49.78;24.23;;;;;;;-4.70;100.00;100906.16;5029955;28;20041;-70
2022/12/15 10:22:44;;;;;;;55.92;25.13;;;;;;;-4.58;100.00;100910.44;5028876;28;20489;-70
2022/12/15 10:25:18;;;;;;;55.45;25.08;;;;;;;-4.48;100.00;100903.28;5028445;28;20124;-70
2022/12/15 10:27:58;;;;;;;53.63;26.00;;;;;;;-4.37;100.00;100898.75;5028008;28;20246;-70
2022/12/15 10:30:24;;;;;;;58.33;26.30;;;;;;;-4.27;100.00;100908.38;5029379;28;20430;-71
2022/12/15 10:33:09;;;;;;;61.00;26.27;;;;;;;-4.19;100.00;100903.88;5028380;28;20120;-69
2022/12/15 10:35:36;;;;;;;60.67;25.85;;;;;;;-4.06;100.00;100901.03;5028097;28;20224;-70
2022/12/15 10:38:05;;;;;;;59.78;27.33;;;;;;;-3.95;100.00;100905.34;5029432;28;20071;-70
2022/12/15 10:40:54;;;;;;;61.70;26.33;;;;;;;-3.83;100.00;100912.28;5027805;28;20322;-69
2022/12/15 10:43:31;;;;;;;63.08;27.08;;;;;;;-3.63;100.00;100912.03;5028471;28;20519;-70
2022/12/15 10:46:17;;;;;;;58.70;27.40;;;;;;;-3.51;100.00;100910.97;5027613;28;20079;-69
2022/12/15 10:48:45;;;;;;;55.83;27.85;;;;;;;-3.37;100.00;100904.56;5035071;28;20853;-70
2022/12/15 10:51:17;;;;;;;63.17;28.67;;;;;;;-3.22;100.00;100906.09;5029034;28;20132;-69
2022/12/15 10:53:48;;;;;;;65.18;28.27;;;;;;;-3.12;100.00;100899.75;5027805;28;20037;-70
2022/12/15 10:56:26;;;;;;;58.90;28.50;;;;;;;-2.95;100.00;100906.59;5038324;28;20095;-70
2022/12/15 10:58:54;;;;;;;58.58;28.00;;;;;;;-2.79;100.00;100902.78;5036135;28;20488;-70
2022/12/15 11:01:23;;;;;;;65.38;29.65;;;;;;;-2.68;100.00;100898.13;5037194;28;20079;-69
2022/12/15 11:03:53;;;;;;;58.55;29.33;;;;;;;-2.58;100.00;100905.06;5043884;28;20025;-69
2022/12/15 11:06:30;;;;;;;63.28;29.00;;;;;;;-2.47;100.00;100906.66;5035509;28;20033;-69
2022/12/15 11:09:08;;;;;;;67.82;29.45;;;;;;;-2.41;100.00;100907.44;5048647;28;20510;-69
2022/12/15 11:14:42;;;;;;;56.85;28.00;;;;;;;-2.12;100.00;100898.88;5032318;28;20461;-70
2022/12/15 11:17:08;;;;;;;56.72;27.65;;;;;;;-2.01;100.00;100892.44;5043763;28;20049;-70
2022/12/15 11:19:43;;;;;;;59.35;27.17;;;;;;;-1.88;100.00;100892.16;5029703;28;20447;-69
2022/12/15 11:22:28;;;;;;;59.03;26.15;;;;;;;-1.75;99.64;100897.25;5027036;28;20044;-69
2022/12/15 11:25:11;;;;;;;56.10;26.73;;;;;;;-1.63;99.56;100891.69;5027300;28;20403;-69
2022/12/15 11:27:42;;;;;;;54.10;25.02;;;;;;;-1.54;98.58;100896.78;5060637;28;20063;-70
2022/12/15 11:30:17;;;;;;;60.75;25.90;;;;;;;-1.45;99.11;100888.56;5028354;28;20103;-70
2022/12/15 11:32:49;;;;;;;62.80;28.58;;;;;;;-1.30;100.00;100887.38;5046281;28;20036;-70
2022/12/15 11:35:36;;;;;;;59.13;28.60;;;;;;;-1.15;99.04;100888.78;5028004;28;20041;-71
2022/12/15 11:38:14;;;;;;;48.17;27.05;;;;;;;-1.14;96.48;100893.22;5027039;28;20040;-70
2022/12/15 11:40:41;;;;;;;46.83;25.45;;;;;;;-1.10;96.54;100885.09;5029062;28;20041;-71
2022/12/15 11:43:16;;;;;;;50.80;25.73;;;;;;;-0.95;98.88;100897.19;5041976;28;20033;-70
2022/12/15 11:45:49;;;;;;;55.72;26.15;;;;;;;-0.81;98.30;100896.84;5028421;28;20025;-70
2022/12/15 11:48:36;;;;;;;57.22;26.92;;;;;;;-0.77;94.73;100894.06;5026638;28;20528;-70
2022/12/15 11:51:06;;;;;;;53.17;26.98;;;;;;;-0.69;93.32;100887.66;5026213;28;20056;-70
2022/12/15 11:53:46;;;;;;;56.08;25.98;;;;;;;-0.64;95.08;100886.63;5026796;28;20037;-70
2022/12/15 11:56:42;;;;;;;50.85;26.45;;;;;;;-0.47;96.34;100883.50;5042374;28;20032;-70
2022/12/15 11:59:38;;;;;;;58.28;26.58;;;;;;;-0.36;93.77;100880.56;5047962;28;20033;-70
2022/12/15 12:02:43;;;;;;;52.00;25.15;;;;;;;-0.29;93.96;100887.47;5031574;28;20119;-70
2022/12/15 12:05:36;;;;;;;47.65;23.00;;;;;;;-0.20;93.12;100881.00;5001975;28;20545;-70
2022/12/15 12:08:22;;;;;;;48.30;26.00;;;;;;;-0.08;92.97;100876.19;5028505;28;20045;-70
2022/12/15 12:11:24;;;;;;;51.40;24.10;;;;;;;0.00;91.90;100876.00;5028371;28;20136;-70
2022/12/15 12:14:12;;;;;;;44.28;23.63;;;;;;;0.12;91.74;100867.59;5027148;28;20497;-70
2022/12/15 12:16:46;;;;;;;45.40;22.67;;;;;;;0.14;90.36;100872.88;5038240;28;20049;-70
2022/12/15 12:19:18;;;;;;;46.47;24.33;;;;;;;0.12;89.83;100867.59;5033624;28;20362;-70
2022/12/15 12:21:49;;;;;;;41.97;24.13;;;;;;;0.10;88.86;100869.47;5028071;28;20042;-70
2022/12/15 12:24:28;;;;;;;39.88;22.33;;;;;;;0.05;89.51;100866.03;5028018;28;20040;-70
2022/12/15 12:27:25;;;;;;;36.42;20.02;;;;;;;0.03;89.12;100856.28;5027756;28;20060;-71
2022/12/15 12:29:59;;;;;;;56.63;24.17;;;;;;;-0.03;88.31;100860.91;5042264;28;20037;-70
2022/12/15 12:32:39;;;;;;;37.63;20.65;;;;;;;-0.09;88.56;100863.75;5028660;28;20420;-70
2022/12/15 12:35:50;;;;;;;37.05;20.45;;;;;;;-0.13;89.07;100864.75;5030702;28;20110;-70
2022/12/15 12:38:22;;;;;;;41.30;21.20;;;;;;;-0.19;88.28;100854.22;5028593;28;20060;-70
2022/12/15 12:40:58;;;;;;;43.08;21.13;;;;;;;-0.18;89.13;100858.66;5033206;28;20175;-71
2022/12/15 12:43:35;;;;;;;49.33;24.00;;;;;;;-0.17;89.28;100863.09;5049866;28;20028;-71
2022/12/15 12:46:16;;;;;;;44.63;22.67;;;;;;;-0.20;88.58;100864.97;5044984;28;20477;-71
2022/12/15 12:49:27;;;;;;;35.72;20.30;;;;;;;-0.27;89.09;100858.94;5030733;28;20110;-71
2022/12/15 12:51:55;;;;;;;42.15;21.23;;;;;;;-0.23;88.64;100873.06;5024479;28;20164;-72
2022/12/15 12:54:33;;;;;;;44.75;21.90;;;;;;;-0.23;89.23;100865.03;5031604;28;20415;-70
2022/12/15 12:56:59;;;;;;;40.42;21.33;;;;;;;-0.23;88.34;100855.25;5029632;28;20037;-71
2022/12/15 12:59:27;;;;;;;44.63;21.73;;;;;;;-0.21;88.39;100852.53;5031510;28;20078;-70
2022/12/15 13:02:17;;;;;;;42.17;22.23;;;;;;;-0.19;88.85;100846.19;5028962;28;20433;-71
2022/12/15 13:04:49;;;;;;;44.97;22.33;;;;;;;-0.10;89.51;100839.72;5029497;28;20040;-71
2022/12/15 13:07:33;;;;;;;43.00;21.58;;;;;;;-0.03;88.99;100841.31;5031311;28;20073;-70
2022/12/15 13:10:17;;;;;;;44.08;22.65;;;;;;;0.06;89.27;100832.16;5029490;28;20041;-71
2022/12/15 13:12:47;;;;;;;47.75;23.10;;;;;;;0.15;88.35;100822.03;5047674;28;20166;-70
2022/12/15 13:15:25;;;;;;;40.72;22.40;;;;;;;0.21;87.52;100823.66;5040741;28;20080;-71
2022/12/15 13:17:54;;;;;;;40.50;21.88;;;;;;;0.30;88.35;100820.69;5030996;28;20060;-70
2022/12/15 13:20:28;;;;;;;46.20;23.33;;;;;;;0.39;88.70;100819.53;5030090;28;20034;-70
2022/12/15 13:22:55;;;;;;;43.30;22.80;;;;;;;0.61;88.83;100811.72;5029613;28;20033;-71
2022/12/15 13:25:41;;;;;;;44.45;22.27;;;;;;;0.73;87.59;100811.31;5031393;28;20072;-70
2022/12/15 13:28:38;;;;;;;44.22;23.05;;;;;;;0.89;89.31;100806.34;5030932;28;20119;-71
2022/12/15 13:31:15;;;;;;;45.58;22.60;;;;;;;1.09;88.54;100814.56;5036218;28;20506;-71
2022/12/15 13:33:54;;;;;;;38.75;22.23;;;;;;;1.24;88.68;100807.81;5041396;28;20045;-71
2022/12/15 13:36:35;;;;;;;41.00;22.63;;;;;;;1.39;86.90;100798.34;5051115;28;20115;-71
2022/12/15 13:39:04;;;;;;;43.63;21.48;;;;;;;1.47;86.09;100798.97;5049013;28;20044;-71
2022/12/15 13:41:32;;;;;;;39.63;22.50;;;;;;;1.49;85.63;100803.34;5044523;28;20049;-71
2022/12/15 13:43:59;;;;;;;44.15;22.85;;;;;;;1.47;84.89;100802.50;5048902;28;20098;-71
2022/12/15 13:46:31;;;;;;;39.95;21.27;;;;;;;1.50;87.43;100806.91;5039406;28;20041;-72
2022/12/15 13:49:33;;;;;;;37.20;21.95;;;;;;;1.49;86.85;100802.44;5029813;28;20057;-71